EST,Max TemperatureF,Mean TemperatureF,Min TemperatureF,Max Dew PointF,MeanDew PointF,Min DewpointF,Max Humidity, Mean Humidity, Min Humidity, Max Sea Level PressureIn, Mean Sea Level PressureIn, Min Sea Level PressureIn, Max VisibilityMiles, Mean VisibilityMiles, Min VisibilityMiles, Max Wind SpeedMPH, Mean Wind SpeedMPH, Max Gust SpeedMPH,PrecipitationIn, CloudCover, Events, WindDirDegrees
2013-2-1,35,31,27,22,13,8,66,47,38,30.09,29.84,29.66,10,10,10,31,22,44,0.00,5,,286
2013-2-2,36,30,23,29,15,6,85,55,38,30.27,30.15,30.05,10,9,2,21,15,26,0.00,4,Snow,264
2013-2-3,32,29,26,30,25,21,93,85,73,30.02,29.86,29.65,10,6,1,23,12,32,0.01,6,Snow,331
2013-2-4,30,28,26,23,17,10,86,65,43,29.95,29.77,29.68,10,7,1,22,17,31,0.00,4,Snow,298
2013-2-5,35,31,27,34,22,7,93,74,43,30.02,29.96,29.89,10,7,2,13,9,21,0.02,8,Snow,34
2013-2-6,39,36,30,33,28,13,96,78,47,30.27,30.02,29.88,10,10,6,15,6,21,0.00,5,,305
2013-2-7,33,30,26,25,15,8,74,57,41,30.50,30.44,30.30,10,10,10,16,11,22,0.00,2,,359
2013-2-8,37,35,33,36,32,25,96,87,70,30.43,29.82,29.16,10,4,1,48,24,69,1.63,8,Rain-Snow,67
2013-2-9,34,28,23,32,22,18,96,85,69,29.96,29.55,29.11,5,1,0,56,42,74,0.06,8,Fog-Rain-Snow,336
2013-2-10,33,27,21,24,16,12,89,68,48,30.39,30.32,30.15,10,10,10,25,17,32,0.00,0,,294
2013-2-11,46,36,25,45,38,23,100,90,76,30.38,29.96,29.62,10,4,0,24,12,33,0.34,6,Fog-Rain,186
2013-2-12,44,40,33,43,36,26,100,84,65,29.88,29.71,29.61,10,7,0,21,13,31,0.00,2,Fog,270
2013-2-13,41,34,28,28,25,21,82,66,49,29.90,29.81,29.66,10,10,10,14,8,,0.00,1,,267
2013-2-14,43,36,28,35,30,23,93,83,53,30.05,29.79,29.64,10,6,1,18,11,24,0.11,5,Snow,1
2013-2-15,46,40,34,38,35,29,89,81,71,30.07,30.03,29.98,10,10,9,13,7,,0.00,0,,178
2013-2-16,43,39,35,42,35,34,100,88,73,29.94,29.82,29.58,10,9,0,24,10,31,0.00,5,Fog-Rain,18
2013-2-17,37,30,21,36,22,6,93,80,49,29.62,29.38,29.23,10,3,0,39,28,58,0.01,8,Fog-Rain-Snow,320
2013-2-18,32,26,19,14,8,6,55,47,37,30.18,29.96,29.67,10,10,8,31,23,43,0.00,0,,286
2013-2-19,46,38,30,45,35,16,97,79,54,30.18,29.91,29.60,10,7,2,31,13,41,0.60,4,Rain,199
2013-2-20,44,36,28,45,28,10,100,71,42,29.81,29.65,29.58,10,8,2,24,15,32,0.03,6,Rain,270
2013-2-21,34,31,28,23,16,13,69,55,42,30.07,29.88,29.78,10,10,10,24,19,34,0.00,4,,302
2013-2-22,39,36,32,30,27,23,87,73,60,30.35,30.28,30.11,10,9,2,24,16,32,0.00,8,Snow,357
2013-2-23,42,37,33,40,33,28,93,82,65,30.32,30.12,29.82,10,9,4,17,8,31,0.25,7,Rain,99
2013-2-24,46,40,33,45,40,33,100,93,87,29.81,29.64,29.49,10,4,1,28,20,44,1.35,8,Rain-Snow,23
2013-2-25,42,35,28,34,30,24,93,78,49,30.24,30.03,29.84,10,10,5,20,16,28,0.02,4,Snow,348
2013-2-26,43,35,27,36,29,24,92,73,47,30.33,30.26,30.12,10,10,10,15,6,23,0.00,2,,73
2013-2-27,46,44,42,45,43,38,100,93,82,30.08,29.73,29.56,10,4,0,34,21,46,0.51,8,Fog-Rain,113
2013-2-28,46,42,37,40,38,37,100,92,73,29.65,29.58,29.50,10,8,1,14,9,,0.08,7,Rain,289